sensor_id;sensor_type;location;lat;lon;timestamp;P1;durP1;ratioP1;P2;durP2;ratioP2
22152;SDS011;11242;50.536;12.688;2023-06-04T00:00:42;4.03;;;3.22;;
22152;SDS011;11242;50.536;12.688;2023-06-04T00:03:08;5.95;;;2.90;;
22152;SDS011;11242;50.536;12.688;2023-06-04T00:05:34;5.43;;;2.80;;
22152;SDS011;11242;50.536;12.688;2023-06-04T00:07:59;5.47;;;2.58;;
22152;SDS011;11242;50.536;12.688;2023-06-04T00:10:25;7.03;;;2.95;;
22152;SDS011;11242;50.536;12.688;2023-06-04T00:12:50;5.03;;;2.40;;
22152;SDS011;11242;50.536;12.688;2023-06-04T00:15:16;3.92;;;2.65;;
22152;SDS011;11242;50.536;12.688;2023-06-04T00:17:42;6.30;;;2.30;;
22152;SDS011;11242;50.536;12.688;2023-06-04T00:20:10;6.15;;;2.50;;
22152;SDS011;11242;50.536;12.688;2023-06-04T00:22:36;2.70;;;2.40;;
22152;SDS011;11242;50.536;12.688;2023-06-04T00:25:02;2.80;;;2.30;;
22152;SDS011;11242;50.536;12.688;2023-06-04T00:27:28;3.80;;;2.90;;
22152;SDS011;11242;50.536;12.688;2023-06-04T00:29:54;5.35;;;2.70;;
22152;SDS011;11242;50.536;12.688;2023-06-04T00:32:19;2.83;;;2.50;;
22152;SDS011;11242;50.536;12.688;2023-06-04T00:34:52;3.50;;;2.50;;
22152;SDS011;11242;50.536;12.688;2023-06-04T00:37:19;3.78;;;2.95;;
22152;SDS011;11242;50.536;12.688;2023-06-04T00:39:45;3.35;;;2.70;;
22152;SDS011;11242;50.536;12.688;2023-06-04T00:42:11;3.17;;;2.50;;
22152;SDS011;11242;50.536;12.688;2023-06-04T00:44:36;3.83;;;2.55;;
22152;SDS011;11242;50.536;12.688;2023-06-04T00:47:02;6.80;;;2.75;;
22152;SDS011;11242;50.536;12.688;2023-06-04T00:49:27;7.25;;;2.90;;
22152;SDS011;11242;50.536;12.688;2023-06-04T00:51:53;4.53;;;2.65;;
22152;SDS011;11242;50.536;12.688;2023-06-04T00:54:19;4.90;;;2.80;;
22152;SDS011;11242;50.536;12.688;2023-06-04T00:56:45;3.55;;;3.03;;
22152;SDS011;11242;50.536;12.688;2023-06-04T00:59:12;4.45;;;2.78;;
22152;SDS011;11242;50.536;12.688;2023-06-04T01:01:40;5.00;;;3.33;;
22152;SDS011;11242;50.536;12.688;2023-06-04T01:04:23;9.02;;;4.05;;
22152;SDS011;11242;50.536;12.688;2023-06-04T01:06:56;3.85;;;3.10;;
22152;SDS011;11242;50.536;12.688;2023-06-04T01:09:25;4.13;;;3.13;;
22152;SDS011;11242;50.536;12.688;2023-06-04T01:11:53;5.22;;;3.63;;
22152;SDS011;11242;50.536;12.688;2023-06-04T01:14:18;4.18;;;3.08;;
22152;SDS011;11242;50.536;12.688;2023-06-04T01:22:27;6.30;;;2.80;;
22152;SDS011;11242;50.536;12.688;2023-06-04T01:24:59;5.03;;;2.63;;
22152;SDS011;11242;50.536;12.688;2023-06-04T01:27:29;6.78;;;3.22;;
22152;SDS011;11242;50.536;12.688;2023-06-04T01:29:55;5.82;;;2.83;;
22152;SDS011;11242;50.536;12.688;2023-06-04T01:32:25;5.18;;;2.83;;
22152;SDS011;11242;50.536;12.688;2023-06-04T01:34:51;3.92;;;2.70;;
22152;SDS011;11242;50.536;12.688;2023-06-04T01:37:17;3.42;;;2.50;;
22152;SDS011;11242;50.536;12.688;2023-06-04T01:39:43;4.30;;;2.63;;
22152;SDS011;11242;50.536;12.688;2023-06-04T01:42:09;4.43;;;2.78;;
22152;SDS011;11242;50.536;12.688;2023-06-04T01:44:35;3.67;;;2.63;;
22152;SDS011;11242;50.536;12.688;2023-06-04T01:47:01;4.13;;;2.65;;
22152;SDS011;11242;50.536;12.688;2023-06-04T01:49:27;3.97;;;2.50;;
22152;SDS011;11242;50.536;12.688;2023-06-04T01:51:53;4.50;;;2.65;;
22152;SDS011;11242;50.536;12.688;2023-06-04T01:54:18;4.18;;;2.83;;
22152;SDS011;11242;50.536;12.688;2023-06-04T01:56:45;6.47;;;3.13;;
22152;SDS011;11242;50.536;12.688;2023-06-04T01:59:13;4.80;;;2.90;;
22152;SDS011;11242;50.536;12.688;2023-06-04T02:01:41;3.88;;;2.70;;
22152;SDS011;11242;50.536;12.688;2023-06-04T02:04:07;3.65;;;2.72;;
22152;SDS011;11242;50.536;12.688;2023-06-04T02:06:32;4.00;;;2.70;;
22152;SDS011;11242;50.536;12.688;2023-06-04T02:08:58;7.22;;;3.15;;
22152;SDS011;11242;50.536;12.688;2023-06-04T02:11:25;4.30;;;2.90;;
22152;SDS011;11242;50.536;12.688;2023-06-04T02:13:51;2.58;;;2.38;;
22152;SDS011;11242;50.536;12.688;2023-06-04T02:16:16;4.28;;;2.78;;
22152;SDS011;11242;50.536;12.688;2023-06-04T02:18:42;4.30;;;2.70;;
22152;SDS011;11242;50.536;12.688;2023-06-04T02:21:11;5.10;;;2.78;;
22152;SDS011;11242;50.536;12.688;2023-06-04T02:23:37;5.70;;;2.70;;
22152;SDS011;11242;50.536;12.688;2023-06-04T02:26:02;5.90;;;3.03;;
22152;SDS011;11242;50.536;12.688;2023-06-04T02:28:28;3.20;;;2.65;;
22152;SDS011;11242;50.536;12.688;2023-06-04T02:30:54;5.55;;;2.90;;
22152;SDS011;11242;50.536;12.688;2023-06-04T02:33:20;3.65;;;2.95;;
22152;SDS011;11242;50.536;12.688;2023-06-04T02:35:46;3.42;;;2.50;;
22152;SDS011;11242;50.536;12.688;2023-06-04T02:38:12;3.90;;;2.53;;
22152;SDS011;11242;50.536;12.688;2023-06-04T02:40:38;3.60;;;2.47;;
22152;SDS011;11242;50.536;12.688;2023-06-04T02:43:04;7.40;;;2.63;;
22152;SDS011;11242;50.536;12.688;2023-06-04T02:45:30;5.72;;;2.80;;
22152;SDS011;11242;50.536;12.688;2023-06-04T02:47:56;3.38;;;2.55;;
22152;SDS011;11242;50.536;12.688;2023-06-04T02:50:22;3.65;;;2.63;;
22152;SDS011;11242;50.536;12.688;2023-06-04T02:52:48;4.68;;;2.83;;
22152;SDS011;11242;50.536;12.688;2023-06-04T02:55:13;3.22;;;2.60;;
22152;SDS011;11242;50.536;12.688;2023-06-04T02:57:39;5.80;;;2.67;;
22152;SDS011;11242;50.536;12.688;2023-06-04T03:00:09;2.88;;;2.50;;
22152;SDS011;11242;50.536;12.688;2023-06-04T03:02:42;6.32;;;2.70;;
22152;SDS011;11242;50.536;12.688;2023-06-04T03:05:12;6.05;;;2.60;;
22152;SDS011;11242;50.536;12.688;2023-06-04T03:07:41;4.18;;;2.50;;
22152;SDS011;11242;50.536;12.688;2023-06-04T03:10:08;4.78;;;2.70;;
22152;SDS011;11242;50.536;12.688;2023-06-04T03:12:34;3.28;;;2.70;;
22152;SDS011;11242;50.536;12.688;2023-06-04T03:15:00;4.15;;;2.63;;
22152;SDS011;11242;50.536;12.688;2023-06-04T03:17:26;3.05;;;2.47;;
22152;SDS011;11242;50.536;12.688;2023-06-04T03:19:52;4.43;;;2.42;;
22152;SDS011;11242;50.536;12.688;2023-06-04T03:22:17;6.53;;;2.75;;
22152;SDS011;11242;50.536;12.688;2023-06-04T03:24:46;4.00;;;2.80;;
22152;SDS011;11242;50.536;12.688;2023-06-04T03:27:12;5.60;;;3.40;;
22152;SDS011;11242;50.536;12.688;2023-06-04T03:29:39;4.10;;;2.80;;
22152;SDS011;11242;50.536;12.688;2023-06-04T03:32:06;5.10;;;2.92;;
22152;SDS011;11242;50.536;12.688;2023-06-04T03:34:32;8.48;;;3.03;;
22152;SDS011;11242;50.536;12.688;2023-06-04T03:36:58;4.57;;;2.47;;
22152;SDS011;11242;50.536;12.688;2023-06-04T03:39:24;9.38;;;3.85;;
22152;SDS011;11242;50.536;12.688;2023-06-04T03:41:50;6.45;;;4.88;;
22152;SDS011;11242;50.536;12.688;2023-06-04T03:44:17;9.10;;;4.97;;
22152;SDS011;11242;50.536;12.688;2023-06-04T03:46:47;9.23;;;5.40;;
22152;SDS011;11242;50.536;12.688;2023-06-04T03:49:13;9.45;;;4.50;;
22152;SDS011;11242;50.536;12.688;2023-06-04T03:51:41;9.00;;;5.38;;
22152;SDS011;11242;50.536;12.688;2023-06-04T03:54:08;6.75;;;4.97;;
22152;SDS011;11242;50.536;12.688;2023-06-04T03:56:35;11.75;;;5.10;;
22152;SDS011;11242;50.536;12.688;2023-06-04T03:59:01;7.72;;;5.40;;
22152;SDS011;11242;50.536;12.688;2023-06-04T04:01:27;7.55;;;4.72;;
22152;SDS011;11242;50.536;12.688;2023-06-04T04:03:54;8.18;;;4.90;;
22152;SDS011;11242;50.536;12.688;2023-06-04T04:06:20;8.18;;;4.85;;
22152;SDS011;11242;50.536;12.688;2023-06-04T04:08:46;8.25;;;4.88;;
22152;SDS011;11242;50.536;12.688;2023-06-04T04:11:15;8.60;;;4.55;;
22152;SDS011;11242;50.536;12.688;2023-06-04T04:13:41;6.45;;;3.85;;
22152;SDS011;11242;50.536;12.688;2023-06-04T04:16:07;5.20;;;4.18;;
22152;SDS011;11242;50.536;12.688;2023-06-04T04:18:34;5.10;;;3.40;;
22152;SDS011;11242;50.536;12.688;2023-06-04T04:21:00;7.75;;;3.50;;
22152;SDS011;11242;50.536;12.688;2023-06-04T04:23:28;5.55;;;3.35;;
22152;SDS011;11242;50.536;12.688;2023-06-04T04:25:54;4.00;;;3.15;;
22152;SDS011;11242;50.536;12.688;2023-06-04T04:28:24;3.35;;;2.78;;
22152;SDS011;11242;50.536;12.688;2023-06-04T04:30:54;2.97;;;2.63;;
22152;SDS011;11242;50.536;12.688;2023-06-04T04:33:21;2.92;;;2.60;;
22152;SDS011;11242;50.536;12.688;2023-06-04T04:35:50;4.40;;;2.67;;
22152;SDS011;11242;50.536;12.688;2023-06-04T04:38:19;3.63;;;2.40;;
22152;SDS011;11242;50.536;12.688;2023-06-04T04:40:52;3.38;;;2.60;;
22152;SDS011;11242;50.536;12.688;2023-06-04T04:43:28;3.20;;;2.50;;
22152;SDS011;11242;50.536;12.688;2023-06-04T04:45:59;3.40;;;2.28;;
22152;SDS011;11242;50.536;12.688;2023-06-04T04:48:25;3.45;;;2.35;;
22152;SDS011;11242;50.536;12.688;2023-06-04T04:50:51;4.28;;;2.20;;
22152;SDS011;11242;50.536;12.688;2023-06-04T04:53:17;6.00;;;2.58;;
22152;SDS011;11242;50.536;12.688;2023-06-04T04:55:43;4.07;;;2.55;;
22152;SDS011;11242;50.536;12.688;2023-06-04T04:58:09;4.80;;;3.33;;
22152;SDS011;11242;50.536;12.688;2023-06-04T05:00:35;2.92;;;2.63;;
22152;SDS011;11242;50.536;12.688;2023-06-04T05:03:02;3.88;;;3.40;;
22152;SDS011;11242;50.536;12.688;2023-06-04T05:05:28;3.08;;;2.75;;
22152;SDS011;11242;50.536;12.688;2023-06-04T05:07:53;2.75;;;2.30;;
22152;SDS011;11242;50.536;12.688;2023-06-04T05:10:24;3.50;;;2.33;;
22152;SDS011;11242;50.536;12.688;2023-06-04T05:12:53;3.10;;;2.05;;
22152;SDS011;11242;50.536;12.688;2023-06-04T05:15:24;2.20;;;2.00;;
22152;SDS011;11242;50.536;12.688;2023-06-04T05:17:52;3.03;;;2.40;;
22152;SDS011;11242;50.536;12.688;2023-06-04T05:20:20;2.35;;;2.15;;
22152;SDS011;11242;50.536;12.688;2023-06-04T05:22:47;3.33;;;2.70;;
22152;SDS011;11242;50.536;12.688;2023-06-04T05:25:13;4.63;;;2.40;;
22152;SDS011;11242;50.536;12.688;2023-06-04T05:27:40;5.53;;;2.30;;
22152;SDS011;11242;50.536;12.688;2023-06-04T05:30:11;3.35;;;2.30;;
22152;SDS011;11242;50.536;12.688;2023-06-04T05:32:37;6.22;;;2.35;;
22152;SDS011;11242;50.536;12.688;2023-06-04T05:35:06;5.32;;;2.40;;
22152;SDS011;11242;50.536;12.688;2023-06-04T05:37:33;2.40;;;2.20;;
22152;SDS011;11242;50.536;12.688;2023-06-04T05:40:00;4.38;;;2.33;;
22152;SDS011;11242;50.536;12.688;2023-06-04T05:42:25;2.20;;;1.88;;
22152;SDS011;11242;50.536;12.688;2023-06-04T05:44:51;2.53;;;2.30;;
22152;SDS011;11242;50.536;12.688;2023-06-04T05:47:18;7.18;;;5.57;;
22152;SDS011;11242;50.536;12.688;2023-06-04T05:49:44;9.05;;;7.15;;
22152;SDS011;11242;50.536;12.688;2023-06-04T05:52:10;73.97;;;53.35;;
22152;SDS011;11242;50.536;12.688;2023-06-04T05:54:36;64.28;;;52.20;;
22152;SDS011;11242;50.536;12.688;2023-06-04T05:57:06;13.95;;;12.45;;
22152;SDS011;11242;50.536;12.688;2023-06-04T05:59:31;8.07;;;6.30;;
22152;SDS011;11242;50.536;12.688;2023-06-04T06:01:57;27.27;;;24.35;;
22152;SDS011;11242;50.536;12.688;2023-06-04T06:04:23;3.65;;;3.08;;
22152;SDS011;11242;50.536;12.688;2023-06-04T06:06:50;4.60;;;2.00;;
22152;SDS011;11242;50.536;12.688;2023-06-04T06:09:15;2.55;;;1.83;;
22152;SDS011;11242;50.536;12.688;2023-06-04T06:11:41;4.50;;;2.00;;
22152;SDS011;11242;50.536;12.688;2023-06-04T06:14:10;3.38;;;3.08;;
22152;SDS011;11242;50.536;12.688;2023-06-04T06:16:36;2.85;;;2.20;;
22152;SDS011;11242;50.536;12.688;2023-06-04T06:19:02;2.30;;;2.10;;
22152;SDS011;11242;50.536;12.688;2023-06-04T06:21:28;3.35;;;3.15;;
22152;SDS011;11242;50.536;12.688;2023-06-04T06:23:54;2.90;;;2.50;;
22152;SDS011;11242;50.536;12.688;2023-06-04T06:26:20;4.70;;;2.78;;
22152;SDS011;11242;50.536;12.688;2023-06-04T06:28:50;2.83;;;1.80;;
22152;SDS011;11242;50.536;12.688;2023-06-04T06:31:15;3.10;;;2.05;;
22152;SDS011;11242;50.536;12.688;2023-06-04T06:33:41;4.90;;;2.10;;
22152;SDS011;11242;50.536;12.688;2023-06-04T06:36:07;4.25;;;2.22;;
22152;SDS011;11242;50.536;12.688;2023-06-04T06:38:43;3.25;;;1.92;;
22152;SDS011;11242;50.536;12.688;2023-06-04T06:41:10;4.70;;;2.95;;
22152;SDS011;11242;50.536;12.688;2023-06-04T06:43:35;3.60;;;2.30;;
22152;SDS011;11242;50.536;12.688;2023-06-04T06:46:01;2.45;;;2.25;;
22152;SDS011;11242;50.536;12.688;2023-06-04T06:48:30;2.20;;;2.00;;
22152;SDS011;11242;50.536;12.688;2023-06-04T06:50:55;2.22;;;2.03;;
22152;SDS011;11242;50.536;12.688;2023-06-04T06:53:21;2.38;;;2.20;;
22152;SDS011;11242;50.536;12.688;2023-06-04T06:55:47;4.05;;;2.20;;
22152;SDS011;11242;50.536;12.688;2023-06-04T06:58:12;4.10;;;2.30;;
22152;SDS011;11242;50.536;12.688;2023-06-04T07:00:38;3.47;;;2.30;;
22152;SDS011;11242;50.536;12.688;2023-06-04T07:03:03;6.47;;;2.30;;
22152;SDS011;11242;50.536;12.688;2023-06-04T07:05:29;3.50;;;2.35;;
22152;SDS011;11242;50.536;12.688;2023-06-04T07:07:55;4.32;;;1.98;;
22152;SDS011;11242;50.536;12.688;2023-06-04T07:10:22;5.07;;;2.33;;
22152;SDS011;11242;50.536;12.688;2023-06-04T07:12:48;2.72;;;2.10;;
22152;SDS011;11242;50.536;12.688;2023-06-04T07:15:14;3.63;;;2.00;;
22152;SDS011;11242;50.536;12.688;2023-06-04T07:17:39;5.28;;;2.40;;
22152;SDS011;11242;50.536;12.688;2023-06-04T07:20:05;2.17;;;1.98;;
22152;SDS011;11242;50.536;12.688;2023-06-04T07:22:32;5.95;;;2.17;;
22152;SDS011;11242;50.536;12.688;2023-06-04T07:24:58;2.35;;;2.15;;
22152;SDS011;11242;50.536;12.688;2023-06-04T07:27:24;3.85;;;2.10;;
22152;SDS011;11242;50.536;12.688;2023-06-04T07:29:51;3.30;;;2.30;;
22152;SDS011;11242;50.536;12.688;2023-06-04T07:32:16;3.92;;;2.22;;
22152;SDS011;11242;50.536;12.688;2023-06-04T07:34:42;3.92;;;2.40;;
22152;SDS011;11242;50.536;12.688;2023-06-04T07:37:07;2.35;;;2.15;;
22152;SDS011;11242;50.536;12.688;2023-06-04T07:39:34;2.33;;;2.10;;
22152;SDS011;11242;50.536;12.688;2023-06-04T07:42:00;5.10;;;2.40;;
22152;SDS011;11242;50.536;12.688;2023-06-04T07:44:26;2.40;;;2.15;;
22152;SDS011;11242;50.536;12.688;2023-06-04T07:46:51;3.30;;;2.00;;
22152;SDS011;11242;50.536;12.688;2023-06-04T07:49:17;5.55;;;2.30;;
22152;SDS011;11242;50.536;12.688;2023-06-04T07:51:43;3.40;;;2.20;;
22152;SDS011;11242;50.536;12.688;2023-06-04T07:54:08;4.82;;;2.55;;
22152;SDS011;11242;50.536;12.688;2023-06-04T07:56:35;2.53;;;2.20;;
22152;SDS011;11242;50.536;12.688;2023-06-04T07:59:00;5.28;;;2.30;;
22152;SDS011;11242;50.536;12.688;2023-06-04T08:01:26;6.03;;;2.22;;
22152;SDS011;11242;50.536;12.688;2023-06-04T08:03:52;4.80;;;2.20;;
22152;SDS011;11242;50.536;12.688;2023-06-04T08:06:18;5.45;;;2.30;;
22152;SDS011;11242;50.536;12.688;2023-06-04T08:08:44;3.30;;;2.17;;
22152;SDS011;11242;50.536;12.688;2023-06-04T08:11:14;4.20;;;2.42;;
22152;SDS011;11242;50.536;12.688;2023-06-04T08:13:40;5.50;;;2.35;;
22152;SDS011;11242;50.536;12.688;2023-06-04T08:16:06;4.45;;;2.20;;
22152;SDS011;11242;50.536;12.688;2023-06-04T08:18:32;3.30;;;2.08;;
22152;SDS011;11242;50.536;12.688;2023-06-04T08:20:58;3.50;;;2.17;;
22152;SDS011;11242;50.536;12.688;2023-06-04T08:23:23;3.28;;;2.33;;
22152;SDS011;11242;50.536;12.688;2023-06-04T08:25:49;7.45;;;2.80;;
22152;SDS011;11242;50.536;12.688;2023-06-04T08:28:15;5.90;;;2.35;;
22152;SDS011;11242;50.536;12.688;2023-06-04T08:30:41;2.95;;;2.40;;
22152;SDS011;11242;50.536;12.688;2023-06-04T08:33:07;5.63;;;2.40;;
22152;SDS011;11242;50.536;12.688;2023-06-04T08:35:33;3.00;;;2.10;;
22152;SDS011;11242;50.536;12.688;2023-06-04T08:37:58;4.88;;;2.10;;
22152;SDS011;11242;50.536;12.688;2023-06-04T08:40:24;5.20;;;2.40;;
22152;SDS011;11242;50.536;12.688;2023-06-04T08:42:50;3.25;;;2.20;;
22152;SDS011;11242;50.536;12.688;2023-06-04T08:45:23;6.72;;;2.28;;
22152;SDS011;11242;50.536;12.688;2023-06-04T08:47:50;2.25;;;2.00;;
22152;SDS011;11242;50.536;12.688;2023-06-04T08:50:16;2.50;;;2.10;;
22152;SDS011;11242;50.536;12.688;2023-06-04T08:52:44;6.03;;;2.60;;
22152;SDS011;11242;50.536;12.688;2023-06-04T08:55:13;5.57;;;2.30;;
22152;SDS011;11242;50.536;12.688;2023-06-04T08:57:39;3.67;;;2.25;;
22152;SDS011;11242;50.536;12.688;2023-06-04T09:00:05;2.55;;;2.30;;
22152;SDS011;11242;50.536;12.688;2023-06-04T09:02:36;2.28;;;1.98;;
22152;SDS011;11242;50.536;12.688;2023-06-04T09:05:03;5.47;;;2.10;;
22152;SDS011;11242;50.536;12.688;2023-06-04T09:07:30;2.38;;;2.17;;
22152;SDS011;11242;50.536;12.688;2023-06-04T09:10:00;9.18;;;2.20;;
22152;SDS011;11242;50.536;12.688;2023-06-04T09:12:26;4.20;;;2.13;;
22152;SDS011;11242;50.536;12.688;2023-06-04T09:14:52;2.72;;;2.08;;
22152;SDS011;11242;50.536;12.688;2023-06-04T09:17:21;2.80;;;2.00;;
22152;SDS011;11242;50.536;12.688;2023-06-04T09:19:48;3.03;;;1.92;;
22152;SDS011;11242;50.536;12.688;2023-06-04T09:22:18;2.45;;;2.13;;
22152;SDS011;11242;50.536;12.688;2023-06-04T09:24:44;3.60;;;1.80;;
22152;SDS011;11242;50.536;12.688;2023-06-04T09:27:19;4.13;;;2.20;;
22152;SDS011;11242;50.536;12.688;2023-06-04T09:29:56;3.58;;;2.20;;
22152;SDS011;11242;50.536;12.688;2023-06-04T09:32:38;3.95;;;2.08;;
22152;SDS011;11242;50.536;12.688;2023-06-04T09:35:08;4.32;;;2.30;;
22152;SDS011;11242;50.536;12.688;2023-06-04T09:37:41;5.20;;;3.17;;
22152;SDS011;11242;50.536;12.688;2023-06-04T09:40:07;2.30;;;2.10;;
22152;SDS011;11242;50.536;12.688;2023-06-04T09:42:44;4.70;;;2.30;;
22152;SDS011;11242;50.536;12.688;2023-06-04T09:45:10;4.07;;;2.03;;
22152;SDS011;11242;50.536;12.688;2023-06-04T09:47:40;3.90;;;1.90;;
22152;SDS011;11242;50.536;12.688;2023-06-04T09:50:07;4.15;;;2.08;;
22152;SDS011;11242;50.536;12.688;2023-06-04T09:52:33;3.25;;;2.25;;
22152;SDS011;11242;50.536;12.688;2023-06-04T09:54:59;5.10;;;2.20;;
22152;SDS011;11242;50.536;12.688;2023-06-04T09:57:25;6.55;;;2.45;;
22152;SDS011;11242;50.536;12.688;2023-06-04T09:59:57;4.05;;;2.28;;
22152;SDS011;11242;50.536;12.688;2023-06-04T10:02:24;5.05;;;2.33;;
22152;SDS011;11242;50.536;12.688;2023-06-04T10:04:55;2.78;;;2.33;;
22152;SDS011;11242;50.536;12.688;2023-06-04T10:07:23;4.05;;;2.50;;
22152;SDS011;11242;50.536;12.688;2023-06-04T10:09:51;2.85;;;2.22;;
22152;SDS011;11242;50.536;12.688;2023-06-04T10:12:19;3.22;;;2.00;;
22152;SDS011;11242;50.536;12.688;2023-06-04T10:14:52;5.40;;;2.47;;
22152;SDS011;11242;50.536;12.688;2023-06-04T10:17:21;3.85;;;2.28;;
22152;SDS011;11242;50.536;12.688;2023-06-04T10:19:49;5.80;;;2.53;;
22152;SDS011;11242;50.536;12.688;2023-06-04T10:22:18;3.85;;;2.05;;
22152;SDS011;11242;50.536;12.688;2023-06-04T10:24:45;4.97;;;3.10;;
22152;SDS011;11242;50.536;12.688;2023-06-04T10:27:11;3.75;;;2.28;;
22152;SDS011;11242;50.536;12.688;2023-06-04T10:29:38;2.75;;;2.22;;
22152;SDS011;11242;50.536;12.688;2023-06-04T10:32:04;5.90;;;2.20;;
22152;SDS011;11242;50.536;12.688;2023-06-04T10:34:30;6.18;;;2.40;;
22152;SDS011;11242;50.536;12.688;2023-06-04T10:36:56;5.00;;;2.10;;
22152;SDS011;11242;50.536;12.688;2023-06-04T10:39:29;6.70;;;1.98;;
22152;SDS011;11242;50.536;12.688;2023-06-04T10:42:02;7.25;;;2.25;;
22152;SDS011;11242;50.536;12.688;2023-06-04T10:44:32;3.55;;;2.00;;
22152;SDS011;11242;50.536;12.688;2023-06-04T10:47:18;3.53;;;2.53;;
22152;SDS011;11242;50.536;12.688;2023-06-04T10:49:45;5.50;;;2.47;;
22152;SDS011;11242;50.536;12.688;2023-06-04T10:52:11;3.17;;;2.33;;
22152;SDS011;11242;50.536;12.688;2023-06-04T10:54:37;4.22;;;2.50;;
22152;SDS011;11242;50.536;12.688;2023-06-04T10:57:12;5.45;;;2.28;;
22152;SDS011;11242;50.536;12.688;2023-06-04T10:59:38;4.28;;;2.00;;
22152;SDS011;11242;50.536;12.688;2023-06-04T11:02:05;2.97;;;2.10;;
22152;SDS011;11242;50.536;12.688;2023-06-04T11:04:31;2.97;;;1.90;;
22152;SDS011;11242;50.536;12.688;2023-06-04T11:07:00;3.42;;;2.20;;
22152;SDS011;11242;50.536;12.688;2023-06-04T11:09:34;3.47;;;2.13;;
22152;SDS011;11242;50.536;12.688;2023-06-04T11:12:00;3.50;;;2.10;;
22152;SDS011;11242;50.536;12.688;2023-06-04T11:14:29;4.25;;;2.15;;
22152;SDS011;11242;50.536;12.688;2023-06-04T11:16:55;3.67;;;1.83;;
22152;SDS011;11242;50.536;12.688;2023-06-04T11:19:21;3.53;;;2.25;;
22152;SDS011;11242;50.536;12.688;2023-06-04T11:21:47;4.20;;;2.40;;
22152;SDS011;11242;50.536;12.688;2023-06-04T11:24:13;2.65;;;2.15;;
22152;SDS011;11242;50.536;12.688;2023-06-04T11:26:39;4.05;;;2.17;;
22152;SDS011;11242;50.536;12.688;2023-06-04T11:29:06;5.70;;;2.42;;
22152;SDS011;11242;50.536;12.688;2023-06-04T11:31:43;3.10;;;2.40;;
22152;SDS011;11242;50.536;12.688;2023-06-04T11:34:10;3.42;;;1.95;;
22152;SDS011;11242;50.536;12.688;2023-06-04T11:36:39;3.75;;;2.30;;
22152;SDS011;11242;50.536;12.688;2023-06-04T11:39:04;3.10;;;2.13;;
22152;SDS011;11242;50.536;12.688;2023-06-04T11:41:34;3.42;;;2.08;;
22152;SDS011;11242;50.536;12.688;2023-06-04T11:44:01;4.18;;;2.00;;
22152;SDS011;11242;50.536;12.688;2023-06-04T11:46:28;4.75;;;2.20;;
22152;SDS011;11242;50.536;12.688;2023-06-04T11:48:55;2.85;;;2.00;;
22152;SDS011;11242;50.536;12.688;2023-06-04T11:51:21;4.05;;;2.20;;
22152;SDS011;11242;50.536;12.688;2023-06-04T11:53:47;3.90;;;2.35;;
22152;SDS011;11242;50.536;12.688;2023-06-04T11:56:12;3.92;;;2.38;;
22152;SDS011;11242;50.536;12.688;2023-06-04T11:58:39;2.83;;;2.20;;
22152;SDS011;11242;50.536;12.688;2023-06-04T12:01:06;2.47;;;2.05;;
22152;SDS011;11242;50.536;12.688;2023-06-04T12:03:36;2.53;;;2.10;;
22152;SDS011;11242;50.536;12.688;2023-06-04T12:06:13;2.90;;;2.40;;
22152;SDS011;11242;50.536;12.688;2023-06-04T12:08:47;4.05;;;2.42;;
22152;SDS011;11242;50.536;12.688;2023-06-04T12:11:27;8.45;;;2.20;;
22152;SDS011;11242;50.536;12.688;2023-06-04T12:13:54;4.70;;;1.80;;
22152;SDS011;11242;50.536;12.688;2023-06-04T12:16:20;7.65;;;2.65;;
22152;SDS011;11242;50.536;12.688;2023-06-04T12:18:46;4.03;;;2.08;;
22152;SDS011;11242;50.536;12.688;2023-06-04T12:21:22;4.50;;;2.10;;
22152;SDS011;11242;50.536;12.688;2023-06-04T12:23:53;5.25;;;1.88;;
22152;SDS011;11242;50.536;12.688;2023-06-04T12:26:20;3.63;;;2.10;;
22152;SDS011;11242;50.536;12.688;2023-06-04T12:31:39;8.38;;;2.30;;
22152;SDS011;11242;50.536;12.688;2023-06-04T12:34:06;4.82;;;2.28;;
22152;SDS011;11242;50.536;12.688;2023-06-04T12:36:32;3.67;;;2.10;;
22152;SDS011;11242;50.536;12.688;2023-06-04T12:39:02;5.47;;;2.30;;
22152;SDS011;11242;50.536;12.688;2023-06-04T12:41:29;6.00;;;2.25;;
22152;SDS011;11242;50.536;12.688;2023-06-04T12:43:55;4.47;;;2.00;;
22152;SDS011;11242;50.536;12.688;2023-06-04T12:46:21;5.47;;;2.28;;
22152;SDS011;11242;50.536;12.688;2023-06-04T12:48:51;2.58;;;2.10;;
22152;SDS011;11242;50.536;12.688;2023-06-04T12:51:17;3.90;;;2.38;;
22152;SDS011;11242;50.536;12.688;2023-06-04T12:53:43;4.90;;;2.22;;
22152;SDS011;11242;50.536;12.688;2023-06-04T12:56:10;4.97;;;2.53;;
22152;SDS011;11242;50.536;12.688;2023-06-04T12:58:36;3.13;;;2.30;;
22152;SDS011;11242;50.536;12.688;2023-06-04T13:01:02;2.95;;;2.10;;
22152;SDS011;11242;50.536;12.688;2023-06-04T13:03:29;4.13;;;2.35;;
22152;SDS011;11242;50.536;12.688;2023-06-04T13:05:55;4.68;;;2.00;;
22152;SDS011;11242;50.536;12.688;2023-06-04T13:08:21;4.78;;;2.25;;
22152;SDS011;11242;50.536;12.688;2023-06-04T13:10:47;5.07;;;2.15;;
22152;SDS011;11242;50.536;12.688;2023-06-04T13:13:14;4.47;;;2.00;;
22152;SDS011;11242;50.536;12.688;2023-06-04T13:15:42;2.35;;;2.03;;
22152;SDS011;11242;50.536;12.688;2023-06-04T13:18:08;5.38;;;2.10;;
22152;SDS011;11242;50.536;12.688;2023-06-04T13:20:35;3.63;;;2.00;;
22152;SDS011;11242;50.536;12.688;2023-06-04T13:23:01;5.28;;;2.10;;
22152;SDS011;11242;50.536;12.688;2023-06-04T13:25:26;2.35;;;2.13;;
22152;SDS011;11242;50.536;12.688;2023-06-04T13:27:53;5.28;;;2.20;;
22152;SDS011;11242;50.536;12.688;2023-06-04T13:30:20;5.10;;;2.58;;
22152;SDS011;11242;50.536;12.688;2023-06-04T13:32:46;2.92;;;1.80;;
22152;SDS011;11242;50.536;12.688;2023-06-04T13:35:12;8.63;;;2.13;;
22152;SDS011;11242;50.536;12.688;2023-06-04T13:37:38;4.28;;;2.10;;
22152;SDS011;11242;50.536;12.688;2023-06-04T13:40:03;3.97;;;2.30;;
22152;SDS011;11242;50.536;12.688;2023-06-04T13:42:29;3.13;;;2.10;;
22152;SDS011;11242;50.536;12.688;2023-06-04T13:44:55;3.22;;;2.13;;
22152;SDS011;11242;50.536;12.688;2023-06-04T13:47:20;3.00;;;2.10;;
22152;SDS011;11242;50.536;12.688;2023-06-04T13:49:48;2.47;;;2.00;;
22152;SDS011;11242;50.536;12.688;2023-06-04T13:52:14;6.43;;;2.55;;
22152;SDS011;11242;50.536;12.688;2023-06-04T13:54:39;4.75;;;2.10;;
22152;SDS011;11242;50.536;12.688;2023-06-04T13:57:05;2.70;;;2.30;;
22152;SDS011;11242;50.536;12.688;2023-06-04T13:59:31;2.90;;;2.28;;
22152;SDS011;11242;50.536;12.688;2023-06-04T14:01:57;3.67;;;2.00;;
22152;SDS011;11242;50.536;12.688;2023-06-04T14:04:23;2.90;;;2.40;;
22152;SDS011;11242;50.536;12.688;2023-06-04T14:06:48;3.33;;;2.38;;
22152;SDS011;11242;50.536;12.688;2023-06-04T14:09:14;3.63;;;2.50;;
22152;SDS011;11242;50.536;12.688;2023-06-04T14:11:40;5.68;;;2.00;;
22152;SDS011;11242;50.536;12.688;2023-06-04T14:14:06;4.20;;;2.10;;
22152;SDS011;11242;50.536;12.688;2023-06-04T14:16:32;3.92;;;2.20;;
22152;SDS011;11242;50.536;12.688;2023-06-04T14:18:58;3.20;;;2.20;;
22152;SDS011;11242;50.536;12.688;2023-06-04T14:21:24;2.33;;;2.05;;
22152;SDS011;11242;50.536;12.688;2023-06-04T14:23:49;9.05;;;2.25;;
22152;SDS011;11242;50.536;12.688;2023-06-04T14:26:16;2.88;;;2.17;;
22152;SDS011;11242;50.536;12.688;2023-06-04T14:28:43;2.42;;;2.22;;
22152;SDS011;11242;50.536;12.688;2023-06-04T14:31:09;2.85;;;2.08;;
22152;SDS011;11242;50.536;12.688;2023-06-04T14:33:37;3.55;;;2.13;;
22152;SDS011;11242;50.536;12.688;2023-06-04T14:36:03;3.20;;;1.90;;
22152;SDS011;11242;50.536;12.688;2023-06-04T14:38:29;2.30;;;2.10;;
22152;SDS011;11242;50.536;12.688;2023-06-04T14:40:54;4.22;;;2.20;;